sensor_id;sensor_type;location;lat;lon;timestamp;temperature;humidity
21387;DHT22;10854;45.922;6.716;2023-04-06T00:00:54;0.60;82.20
21387;DHT22;10854;45.922;6.716;2023-04-06T00:03:23;0.70;82.30
21387;DHT22;10854;45.922;6.716;2023-04-06T00:05:52;0.70;82.50
21387;DHT22;10854;45.922;6.716;2023-04-06T00:08:22;0.80;82.50
21387;DHT22;10854;45.922;6.716;2023-04-06T00:10:51;0.90;82.60
21387;DHT22;10854;45.922;6.716;2023-04-06T00:13:22;1.00;82.60
21387;DHT22;10854;45.922;6.716;2023-04-06T00:15:53;1.10;82.40
21387;DHT22;10854;45.922;6.716;2023-04-06T00:18:23;1.20;82.30
21387;DHT22;10854;45.922;6.716;2023-04-06T00:20:52;1.30;82.10
21387;DHT22;10854;45.922;6.716;2023-04-06T00:23:21;1.40;81.60
21387;DHT22;10854;45.922;6.716;2023-04-06T00:25:49;1.60;81.40
21387;DHT22;10854;45.922;6.716;2023-04-06T00:28:17;1.70;81.00
21387;DHT22;10854;45.922;6.716;2023-04-06T00:30:53;1.80;80.60
21387;DHT22;10854;45.922;6.716;2023-04-06T00:33:24;1.80;80.50
21387;DHT22;10854;45.922;6.716;2023-04-06T00:35:53;1.90;80.70
21387;DHT22;10854;45.922;6.716;2023-04-06T00:38:22;1.90;80.30
21387;DHT22;10854;45.922;6.716;2023-04-06T00:40:51;1.90;80.10
21387;DHT22;10854;45.922;6.716;2023-04-06T00:43:22;1.80;79.90
21387;DHT22;10854;45.922;6.716;2023-04-06T00:45:53;1.80;80.00
21387;DHT22;10854;45.922;6.716;2023-04-06T00:48:22;1.80;80.00
21387;DHT22;10854;45.922;6.716;2023-04-06T00:50:51;1.70;79.90
21387;DHT22;10854;45.922;6.716;2023-04-06T00:53:20;1.70;80.00
21387;DHT22;10854;45.922;6.716;2023-04-06T00:55:49;1.70;79.80
21387;DHT22;10854;45.922;6.716;2023-04-06T00:58:18;1.70;79.50
21387;DHT22;10854;45.922;6.716;2023-04-06T01:00:46;1.70;79.50
21387;DHT22;10854;45.922;6.716;2023-04-06T01:03:15;1.60;79.40
21387;DHT22;10854;45.922;6.716;2023-04-06T01:05:44;1.50;79.40
21387;DHT22;10854;45.922;6.716;2023-04-06T01:08:15;1.50;79.60
21387;DHT22;10854;45.922;6.716;2023-04-06T01:10:43;1.50;79.50
21387;DHT22;10854;45.922;6.716;2023-04-06T01:13:12;1.40;79.60
21387;DHT22;10854;45.922;6.716;2023-04-06T01:15:40;1.30;79.70
21387;DHT22;10854;45.922;6.716;2023-04-06T01:18:09;1.20;79.60
21387;DHT22;10854;45.922;6.716;2023-04-06T01:20:40;1.10;79.90
21387;DHT22;10854;45.922;6.716;2023-04-06T01:23:09;1.00;80.10
21387;DHT22;10854;45.922;6.716;2023-04-06T01:25:37;0.90;80.30
21387;DHT22;10854;45.922;6.716;2023-04-06T01:28:06;0.80;80.70
21387;DHT22;10854;45.922;6.716;2023-04-06T01:30:34;0.70;81.20
21387;DHT22;10854;45.922;6.716;2023-04-06T01:33:03;0.60;81.80
21387;DHT22;10854;45.922;6.716;2023-04-06T01:35:32;0.50;82.40
21387;DHT22;10854;45.922;6.716;2023-04-06T01:38:00;0.50;83.50
21387;DHT22;10854;45.922;6.716;2023-04-06T01:40:30;0.40;83.80
21387;DHT22;10854;45.922;6.716;2023-04-06T01:42:59;0.40;84.20
21387;DHT22;10854;45.922;6.716;2023-04-06T01:45:28;0.30;85.00
21387;DHT22;10854;45.922;6.716;2023-04-06T01:48:01;0.30;85.30
21387;DHT22;10854;45.922;6.716;2023-04-06T01:50:31;0.20;86.10
21387;DHT22;10854;45.922;6.716;2023-04-06T01:52:59;0.20;86.80
21387;DHT22;10854;45.922;6.716;2023-04-06T01:55:28;0.20;87.10
21387;DHT22;10854;45.922;6.716;2023-04-06T01:57:59;0.30;87.00
21387;DHT22;10854;45.922;6.716;2023-04-06T02:00:27;0.20;86.90
21387;DHT22;10854;45.922;6.716;2023-04-06T02:02:56;0.20;87.00
21387;DHT22;10854;45.922;6.716;2023-04-06T02:05:29;0.10;87.60
21387;DHT22;10854;45.922;6.716;2023-04-06T02:08:01;0.10;88.30
21387;DHT22;10854;45.922;6.716;2023-04-06T02:10:29;0.00;88.60
21387;DHT22;10854;45.922;6.716;2023-04-06T02:12:57;0.00;89.00
21387;DHT22;10854;45.922;6.716;2023-04-06T02:15:26;-0.10;89.40
21387;DHT22;10854;45.922;6.716;2023-04-06T02:17:55;-0.10;89.90
21387;DHT22;10854;45.922;6.716;2023-04-06T02:20:23;-0.20;90.20
21387;DHT22;10854;45.922;6.716;2023-04-06T02:22:53;-0.10;90.60
21387;DHT22;10854;45.922;6.716;2023-04-06T02:25:21;-0.10;90.70
21387;DHT22;10854;45.922;6.716;2023-04-06T02:27:51;0.00;90.90
21387;DHT22;10854;45.922;6.716;2023-04-06T02:30:23;0.10;90.90
21387;DHT22;10854;45.922;6.716;2023-04-06T02:32:51;0.10;90.90
21387;DHT22;10854;45.922;6.716;2023-04-06T02:35:22;0.10;90.80
21387;DHT22;10854;45.922;6.716;2023-04-06T02:37:50;0.10;90.70
21387;DHT22;10854;45.922;6.716;2023-04-06T02:40:20;0.20;90.70
21387;DHT22;10854;45.922;6.716;2023-04-06T02:42:49;0.30;90.80
21387;DHT22;10854;45.922;6.716;2023-04-06T02:45:19;0.30;90.60
21387;DHT22;10854;45.922;6.716;2023-04-06T02:47:48;0.40;90.80
21387;DHT22;10854;45.922;6.716;2023-04-06T02:50:16;0.50;91.10
21387;DHT22;10854;45.922;6.716;2023-04-06T02:52:45;0.50;91.00
21387;DHT22;10854;45.922;6.716;2023-04-06T02:55:14;0.60;91.30
21387;DHT22;10854;45.922;6.716;2023-04-06T02:57:43;0.70;91.70
21387;DHT22;10854;45.922;6.716;2023-04-06T03:00:12;0.80;91.80
21387;DHT22;10854;45.922;6.716;2023-04-06T03:02:40;0.80;91.60
21387;DHT22;10854;45.922;6.716;2023-04-06T03:05:09;0.70;91.10
21387;DHT22;10854;45.922;6.716;2023-04-06T03:07:38;0.70;91.10
21387;DHT22;10854;45.922;6.716;2023-04-06T03:10:08;0.60;91.20
21387;DHT22;10854;45.922;6.716;2023-04-06T03:12:37;0.50;91.20
21387;DHT22;10854;45.922;6.716;2023-04-06T03:15:06;0.50;91.10
21387;DHT22;10854;45.922;6.716;2023-04-06T03:17:36;0.40;91.00
21387;DHT22;10854;45.922;6.716;2023-04-06T03:20:07;0.30;90.90
21387;DHT22;10854;45.922;6.716;2023-04-06T03:22:35;0.20;91.00
21387;DHT22;10854;45.922;6.716;2023-04-06T03:25:04;0.10;91.00
21387;DHT22;10854;45.922;6.716;2023-04-06T03:27:32;0.00;91.10
21387;DHT22;10854;45.922;6.716;2023-04-06T03:30:02;-0.10;91.10
21387;DHT22;10854;45.922;6.716;2023-04-06T03:32:33;-0.10;91.30
21387;DHT22;10854;45.922;6.716;2023-04-06T03:35:02;-0.20;91.30
21387;DHT22;10854;45.922;6.716;2023-04-06T03:37:33;-0.30;91.60
21387;DHT22;10854;45.922;6.716;2023-04-06T03:40:01;-0.30;91.80
21387;DHT22;10854;45.922;6.716;2023-04-06T03:42:30;-0.40;92.10
21387;DHT22;10854;45.922;6.716;2023-04-06T03:45:00;-0.40;92.50
21387;DHT22;10854;45.922;6.716;2023-04-06T03:47:28;-0.50;93.10
21387;DHT22;10854;45.922;6.716;2023-04-06T03:49:58;-0.50;93.50
21387;DHT22;10854;45.922;6.716;2023-04-06T03:52:27;-0.50;93.70
21387;DHT22;10854;45.922;6.716;2023-04-06T03:54:56;-0.60;93.90
21387;DHT22;10854;45.922;6.716;2023-04-06T03:57:24;-0.60;94.10
21387;DHT22;10854;45.922;6.716;2023-04-06T03:59:53;-0.70;94.70
21387;DHT22;10854;45.922;6.716;2023-04-06T04:02:21;-0.70;95.40
21387;DHT22;10854;45.922;6.716;2023-04-06T04:04:50;-0.80;95.80
21387;DHT22;10854;45.922;6.716;2023-04-06T04:07:18;-0.90;96.00
21387;DHT22;10854;45.922;6.716;2023-04-06T04:09:47;-0.90;96.40
21387;DHT22;10854;45.922;6.716;2023-04-06T04:12:15;-0.90;97.60
21387;DHT22;10854;45.922;6.716;2023-04-06T04:14:46;-0.90;97.80
21387;DHT22;10854;45.922;6.716;2023-04-06T04:17:16;-0.90;98.20
21387;DHT22;10854;45.922;6.716;2023-04-06T04:19:44;-0.90;98.20
21387;DHT22;10854;45.922;6.716;2023-04-06T04:22:13;-0.90;98.20
21387;DHT22;10854;45.922;6.716;2023-04-06T04:24:42;-0.90;98.40
21387;DHT22;10854;45.922;6.716;2023-04-06T04:27:10;-0.90;98.90
21387;DHT22;10854;45.922;6.716;2023-04-06T04:29:38;-0.90;99.40
21387;DHT22;10854;45.922;6.716;2023-04-06T04:32:08;-0.90;99.50
21387;DHT22;10854;45.922;6.716;2023-04-06T04:34:37;-0.90;99.90
21387;DHT22;10854;45.922;6.716;2023-04-06T04:37:08;-0.80;99.90
21387;DHT22;10854;45.922;6.716;2023-04-06T04:39:36;-0.80;99.90
21387;DHT22;10854;45.922;6.716;2023-04-06T04:42:04;-0.70;99.90
21387;DHT22;10854;45.922;6.716;2023-04-06T04:44:33;-0.80;99.90
21387;DHT22;10854;45.922;6.716;2023-04-06T04:47:01;-0.90;99.90
21387;DHT22;10854;45.922;6.716;2023-04-06T04:49:30;-0.90;99.90
21387;DHT22;10854;45.922;6.716;2023-04-06T04:51:58;-1.00;99.90
21387;DHT22;10854;45.922;6.716;2023-04-06T04:54:27;-1.00;99.90
21387;DHT22;10854;45.922;6.716;2023-04-06T04:56:55;-1.10;99.90
21387;DHT22;10854;45.922;6.716;2023-04-06T04:59:25;-1.20;99.90
21387;DHT22;10854;45.922;6.716;2023-04-06T05:01:53;-1.30;99.90
21387;DHT22;10854;45.922;6.716;2023-04-06T05:04:25;-1.30;99.90
21387;DHT22;10854;45.922;6.716;2023-04-06T05:07:09;-1.30;99.90
21387;DHT22;10854;45.922;6.716;2023-04-06T05:09:40;-1.30;99.90
21387;DHT22;10854;45.922;6.716;2023-04-06T05:12:11;-1.20;99.90
21387;DHT22;10854;45.922;6.716;2023-04-06T05:14:40;-1.20;99.90
21387;DHT22;10854;45.922;6.716;2023-04-06T05:17:10;-1.10;99.90
21387;DHT22;10854;45.922;6.716;2023-04-06T05:19:39;-1.10;99.90
21387;DHT22;10854;45.922;6.716;2023-04-06T05:22:07;-1.10;99.90
21387;DHT22;10854;45.922;6.716;2023-04-06T05:24:35;-1.00;99.90
21387;DHT22;10854;45.922;6.716;2023-04-06T05:27:04;-1.10;99.90
21387;DHT22;10854;45.922;6.716;2023-04-06T05:29:34;-1.10;99.90
21387;DHT22;10854;45.922;6.716;2023-04-06T05:32:03;-1.10;99.90
21387;DHT22;10854;45.922;6.716;2023-04-06T05:34:32;-1.10;99.90
21387;DHT22;10854;45.922;6.716;2023-04-06T05:37:00;-1.00;99.90
21387;DHT22;10854;45.922;6.716;2023-04-06T05:39:29;-1.00;99.90
21387;DHT22;10854;45.922;6.716;2023-04-06T05:42:01;-0.90;99.90
21387;DHT22;10854;45.922;6.716;2023-04-06T05:44:29;-0.90;99.90
21387;DHT22;10854;45.922;6.716;2023-04-06T05:47:00;-0.90;99.90
21387;DHT22;10854;45.922;6.716;2023-04-06T05:49:29;-0.90;99.90
21387;DHT22;10854;45.922;6.716;2023-04-06T05:51:59;-0.90;99.90
21387;DHT22;10854;45.922;6.716;2023-04-06T05:54:27;-0.90;99.90
21387;DHT22;10854;45.922;6.716;2023-04-06T05:57:03;-0.90;99.90
21387;DHT22;10854;45.922;6.716;2023-04-06T05:59:32;-0.90;99.90
21387;DHT22;10854;45.922;6.716;2023-04-06T06:02:00;-0.80;99.90
21387;DHT22;10854;45.922;6.716;2023-04-06T06:04:31;-0.80;99.90
21387;DHT22;10854;45.922;6.716;2023-04-06T06:06:59;-0.70;99.90
21387;DHT22;10854;45.922;6.716;2023-04-06T06:09:28;-0.60;99.90
21387;DHT22;10854;45.922;6.716;2023-04-06T06:11:56;-0.60;99.90
21387;DHT22;10854;45.922;6.716;2023-04-06T06:14:25;-0.60;99.90
21387;DHT22;10854;45.922;6.716;2023-04-06T06:16:56;-0.50;99.90
21387;DHT22;10854;45.922;6.716;2023-04-06T06:19:25;-0.50;99.90
21387;DHT22;10854;45.922;6.716;2023-04-06T06:21:53;-0.50;99.90
21387;DHT22;10854;45.922;6.716;2023-04-06T06:24:22;-0.30;99.90
21387;DHT22;10854;45.922;6.716;2023-04-06T06:26:50;-0.20;99.90
21387;DHT22;10854;45.922;6.716;2023-04-06T06:29:19;-0.10;99.90
21387;DHT22;10854;45.922;6.716;2023-04-06T06:31:47;0.00;99.90
21387;DHT22;10854;45.922;6.716;2023-04-06T06:34:16;0.10;99.90
21387;DHT22;10854;45.922;6.716;2023-04-06T06:36:44;0.10;99.90
21387;DHT22;10854;45.922;6.716;2023-04-06T06:39:14;0.10;99.90
21387;DHT22;10854;45.922;6.716;2023-04-06T06:41:42;0.20;99.90
21387;DHT22;10854;45.922;6.716;2023-04-06T06:44:11;0.20;99.90
21387;DHT22;10854;45.922;6.716;2023-04-06T06:46:39;0.30;99.90
21387;DHT22;10854;45.922;6.716;2023-04-06T06:49:08;0.40;99.90
21387;DHT22;10854;45.922;6.716;2023-04-06T06:51:37;0.50;99.90
21387;DHT22;10854;45.922;6.716;2023-04-06T06:54:05;0.60;99.90
21387;DHT22;10854;45.922;6.716;2023-04-06T06:56:34;0.70;99.90
21387;DHT22;10854;45.922;6.716;2023-04-06T06:59:07;1.00;99.90
21387;DHT22;10854;45.922;6.716;2023-04-06T07:01:36;1.70;99.90
21387;DHT22;10854;45.922;6.716;2023-04-06T07:04:06;2.60;99.90
21387;DHT22;10854;45.922;6.716;2023-04-06T07:06:36;3.50;99.90
21387;DHT22;10854;45.922;6.716;2023-04-06T07:09:04;4.20;98.70
21387;DHT22;10854;45.922;6.716;2023-04-06T07:11:33;5.00;94.50
21387;DHT22;10854;45.922;6.716;2023-04-06T07:14:02;5.70;91.70
21387;DHT22;10854;45.922;6.716;2023-04-06T07:16:30;6.30;88.00
21387;DHT22;10854;45.922;6.716;2023-04-06T07:18:59;6.80;84.40
21387;DHT22;10854;45.922;6.716;2023-04-06T07:21:27;7.40;80.70
21387;DHT22;10854;45.922;6.716;2023-04-06T07:23:57;7.90;75.50
21387;DHT22;10854;45.922;6.716;2023-04-06T07:26:25;8.10;71.90
21387;DHT22;10854;45.922;6.716;2023-04-06T07:28:54;8.30;69.70
21387;DHT22;10854;45.922;6.716;2023-04-06T07:31:22;8.60;69.30
21387;DHT22;10854;45.922;6.716;2023-04-06T07:33:52;9.10;68.20
21387;DHT22;10854;45.922;6.716;2023-04-06T07:36:21;9.40;65.70
21387;DHT22;10854;45.922;6.716;2023-04-06T07:38:49;9.70;64.20
21387;DHT22;10854;45.922;6.716;2023-04-06T07:41:18;9.90;62.50
21387;DHT22;10854;45.922;6.716;2023-04-06T07:43:47;10.00;60.20
21387;DHT22;10854;45.922;6.716;2023-04-06T07:46:16;10.40;59.30
21387;DHT22;10854;45.922;6.716;2023-04-06T07:48:44;10.80;57.80
21387;DHT22;10854;45.922;6.716;2023-04-06T07:51:14;11.20;56.30
21387;DHT22;10854;45.922;6.716;2023-04-06T07:53:45;11.60;54.90
21387;DHT22;10854;45.922;6.716;2023-04-06T07:56:14;12.00;53.70
21387;DHT22;10854;45.922;6.716;2023-04-06T07:58:43;12.50;53.00
21387;DHT22;10854;45.922;6.716;2023-04-06T08:01:12;12.90;52.20
21387;DHT22;10854;45.922;6.716;2023-04-06T08:03:40;13.30;49.10
21387;DHT22;10854;45.922;6.716;2023-04-06T08:06:08;13.50;48.00
21387;DHT22;10854;45.922;6.716;2023-04-06T08:08:37;13.70;48.00
21387;DHT22;10854;45.922;6.716;2023-04-06T08:11:06;13.90;47.20
21387;DHT22;10854;45.922;6.716;2023-04-06T08:13:34;14.00;46.40
21387;DHT22;10854;45.922;6.716;2023-04-06T08:16:03;14.20;46.00
21387;DHT22;10854;45.922;6.716;2023-04-06T08:18:32;14.50;46.30
21387;DHT22;10854;45.922;6.716;2023-04-06T08:21:00;14.60;44.50
21387;DHT22;10854;45.922;6.716;2023-04-06T08:23:29;14.60;44.50
21387;DHT22;10854;45.922;6.716;2023-04-06T08:25:58;14.80;44.50
21387;DHT22;10854;45.922;6.716;2023-04-06T08:28:26;14.90;44.00
21387;DHT22;10854;45.922;6.716;2023-04-06T08:30:56;14.80;43.40
21387;DHT22;10854;45.922;6.716;2023-04-06T08:33:24;14.40;43.30
21387;DHT22;10854;45.922;6.716;2023-04-06T08:35:52;14.00;43.70
21387;DHT22;10854;45.922;6.716;2023-04-06T08:38:21;13.60;44.20
21387;DHT22;10854;45.922;6.716;2023-04-06T08:40:49;13.50;44.60
21387;DHT22;10854;45.922;6.716;2023-04-06T08:43:21;13.30;44.00
21387;DHT22;10854;45.922;6.716;2023-04-06T08:45:51;13.30;44.60
21387;DHT22;10854;45.922;6.716;2023-04-06T08:48:20;13.50;45.30
21387;DHT22;10854;45.922;6.716;2023-04-06T08:50:49;13.90;45.40
21387;DHT22;10854;45.922;6.716;2023-04-06T08:53:17;14.30;44.90
21387;DHT22;10854;45.922;6.716;2023-04-06T08:55:51;14.70;44.50
21387;DHT22;10854;45.922;6.716;2023-04-06T08:58:20;14.70;43.50
21387;DHT22;10854;45.922;6.716;2023-04-06T09:00:54;14.60;43.40
21387;DHT22;10854;45.922;6.716;2023-04-06T09:03:23;14.40;42.60
21387;DHT22;10854;45.922;6.716;2023-04-06T09:05:54;14.40;42.50
21387;DHT22;10854;45.922;6.716;2023-04-06T09:08:23;14.40;42.50
21387;DHT22;10854;45.922;6.716;2023-04-06T09:10:52;14.40;42.20
21387;DHT22;10854;45.922;6.716;2023-04-06T09:13:20;14.40;40.90
21387;DHT22;10854;45.922;6.716;2023-04-06T09:16:04;14.40;41.60
21387;DHT22;10854;45.922;6.716;2023-04-06T09:18:36;14.50;41.50
21387;DHT22;10854;45.922;6.716;2023-04-06T09:21:06;14.40;41.90
21387;DHT22;10854;45.922;6.716;2023-04-06T09:23:35;14.60;41.60
21387;DHT22;10854;45.922;6.716;2023-04-06T09:26:08;14.90;41.50
21387;DHT22;10854;45.922;6.716;2023-04-06T09:28:49;15.40;41.00
21387;DHT22;10854;45.922;6.716;2023-04-06T09:31:28;15.80;39.40
21387;DHT22;10854;45.922;6.716;2023-04-06T09:33:58;16.40;38.80
21387;DHT22;10854;45.922;6.716;2023-04-06T09:36:34;16.70;37.80
21387;DHT22;10854;45.922;6.716;2023-04-06T09:39:04;17.20;37.50
21387;DHT22;10854;45.922;6.716;2023-04-06T09:41:34;17.40;37.20
21387;DHT22;10854;45.922;6.716;2023-04-06T09:44:04;17.50;35.70
21387;DHT22;10854;45.922;6.716;2023-04-06T09:46:40;17.50;35.70
21387;DHT22;10854;45.922;6.716;2023-04-06T09:49:13;17.70;36.30
21387;DHT22;10854;45.922;6.716;2023-04-06T09:51:47;17.90;35.40
21387;DHT22;10854;45.922;6.716;2023-04-06T09:54:20;18.10;35.40
21387;DHT22;10854;45.922;6.716;2023-04-06T09:56:58;18.30;34.30
21387;DHT22;10854;45.922;6.716;2023-04-06T10:02:49;18.30;33.10
21387;DHT22;10854;45.922;6.716;2023-04-06T10:08:32;19.30;34.30
21387;DHT22;10854;45.922;6.716;2023-04-06T10:11:02;19.90;31.90
21387;DHT22;10854;45.922;6.716;2023-04-06T10:13:30;19.80;31.30
21387;DHT22;10854;45.922;6.716;2023-04-06T10:16:00;20.00;32.00
21387;DHT22;10854;45.922;6.716;2023-04-06T10:18:30;20.30;32.20
21387;DHT22;10854;45.922;6.716;2023-04-06T10:21:07;20.70;31.90
21387;DHT22;10854;45.922;6.716;2023-04-06T10:23:41;21.20;31.30
21387;DHT22;10854;45.922;6.716;2023-04-06T10:26:15;21.30;30.90
21387;DHT22;10854;45.922;6.716;2023-04-06T10:28:46;21.40;30.70
21387;DHT22;10854;45.922;6.716;2023-04-06T10:31:15;21.60;30.80
21387;DHT22;10854;45.922;6.716;2023-04-06T10:33:54;21.90;29.70
21387;DHT22;10854;45.922;6.716;2023-04-06T10:36:25;22.00;28.60
21387;DHT22;10854;45.922;6.716;2023-04-06T10:38:57;21.80;28.90
21387;DHT22;10854;45.922;6.716;2023-04-06T10:41:42;21.70;28.70
21387;DHT22;10854;45.922;6.716;2023-04-06T10:44:24;21.90;28.80
21387;DHT22;10854;45.922;6.716;2023-04-06T10:46:57;22.30;27.80
21387;DHT22;10854;45.922;6.716;2023-04-06T10:49:28;22.30;28.00
21387;DHT22;10854;45.922;6.716;2023-04-06T10:51:57;22.40;28.40
21387;DHT22;10854;45.922;6.716;2023-04-06T10:54:27;22.80;28.20
21387;DHT22;10854;45.922;6.716;2023-04-06T10:56:56;22.60;27.30
21387;DHT22;10854;45.922;6.716;2023-04-06T10:59:24;22.30;27.00
21387;DHT22;10854;45.922;6.716;2023-04-06T11:01:53;22.10;27.10
21387;DHT22;10854;45.922;6.716;2023-04-06T11:04:25;22.20;27.40
21387;DHT22;10854;45.922;6.716;2023-04-06T11:06:53;22.20;26.90
21387;DHT22;10854;45.922;6.716;2023-04-06T11:09:24;22.30;27.00
21387;DHT22;10854;45.922;6.716;2023-04-06T11:11:53;22.20;26.20
21387;DHT22;10854;45.922;6.716;2023-04-06T11:14:22;22.10;26.80
21387;DHT22;10854;45.922;6.716;2023-04-06T11:16:50;22.10;27.20
21387;DHT22;10854;45.922;6.716;2023-04-06T11:19:19;21.90;26.40
21387;DHT22;10854;45.922;6.716;2023-04-06T11:21:48;21.70;26.70
21387;DHT22;10854;45.922;6.716;2023-04-06T11:29:22;22.30;26.90
21387;DHT22;10854;45.922;6.716;2023-04-06T11:31:52;22.50;26.80
21387;DHT22;10854;45.922;6.716;2023-04-06T11:34:22;22.60;26.40
21387;DHT22;10854;45.922;6.716;2023-04-06T11:36:59;22.80;26.40
21387;DHT22;10854;45.922;6.716;2023-04-06T11:39:29;23.00;26.60
21387;DHT22;10854;45.922;6.716;2023-04-06T11:42:01;23.10;26.60
21387;DHT22;10854;45.922;6.716;2023-04-06T11:44:37;23.10;26.40
21387;DHT22;10854;45.922;6.716;2023-04-06T11:47:11;22.80;25.60
21387;DHT22;10854;45.922;6.716;2023-04-06T11:49:41;22.50;26.30
21387;DHT22;10854;45.922;6.716;2023-04-06T11:52:23;22.30;26.20
21387;DHT22;10854;45.922;6.716;2023-04-06T11:54:54;22.50;26.40
21387;DHT22;10854;45.922;6.716;2023-04-06T11:57:24;22.60;26.40
21387;DHT22;10854;45.922;6.716;2023-04-06T11:59:53;22.60;26.80
21387;DHT22;10854;45.922;6.716;2023-04-06T12:02:21;22.70;26.80
21387;DHT22;10854;45.922;6.716;2023-04-06T12:04:50;22.60;26.40
21387;DHT22;10854;45.922;6.716;2023-04-06T12:07:20;22.30;26.20
21387;DHT22;10854;45.922;6.716;2023-04-06T12:09:49;22.20;25.80
21387;DHT22;10854;45.922;6.716;2023-04-06T12:12:17;22.10;25.60
21387;DHT22;10854;45.922;6.716;2023-04-06T12:14:46;21.80;25.50
21387;DHT22;10854;45.922;6.716;2023-04-06T12:17:15;21.90;26.60
21387;DHT22;10854;45.922;6.716;2023-04-06T12:19:44;22.30;25.80
21387;DHT22;10854;45.922;6.716;2023-04-06T12:22:13;22.30;25.50
21387;DHT22;10854;45.922;6.716;2023-04-06T12:24:41;22.30;25.90
21387;DHT22;10854;45.922;6.716;2023-04-06T12:27:10;22.10;25.20
21387;DHT22;10854;45.922;6.716;2023-04-06T12:29:39;21.60;24.90
21387;DHT22;10854;45.922;6.716;2023-04-06T12:32:08;21.10;24.70
21387;DHT22;10854;45.922;6.716;2023-04-06T12:34:38;20.80;25.40
21387;DHT22;10854;45.922;6.716;2023-04-06T12:37:06;20.90;25.70
21387;DHT22;10854;45.922;6.716;2023-04-06T12:39:36;21.10;25.80
21387;DHT22;10854;45.922;6.716;2023-04-06T12:42:04;21.50;25.80
21387;DHT22;10854;45.922;6.716;2023-04-06T12:44:33;21.90;25.20
21387;DHT22;10854;45.922;6.716;2023-04-06T12:47:01;22.10;25.40
21387;DHT22;10854;45.922;6.716;2023-04-06T12:49:30;22.30;25.40
21387;DHT22;10854;45.922;6.716;2023-04-06T12:51:59;22.30;25.10
21387;DHT22;10854;45.922;6.716;2023-04-06T12:54:27;21.90;24.80
21387;DHT22;10854;45.922;6.716;2023-04-06T12:56:56;21.60;24.60
21387;DHT22;10854;45.922;6.716;2023-04-06T12:59:24;21.40;25.30
21387;DHT22;10854;45.922;6.716;2023-04-06T13:01:53;21.20;25.30
21387;DHT22;10854;45.922;6.716;2023-04-06T13:04:21;20.90;24.90
21387;DHT22;10854;45.922;6.716;2023-04-06T13:06:49;20.70;25.20
21387;DHT22;10854;45.922;6.716;2023-04-06T13:09:18;20.40;25.40
21387;DHT22;10854;45.922;6.716;2023-04-06T13:11:46;20.20;25.30
21387;DHT22;10854;45.922;6.716;2023-04-06T13:14:16;20.10;25.20
21387;DHT22;10854;45.922;6.716;2023-04-06T13:16:44;20.10;25.00
21387;DHT22;10854;45.922;6.716;2023-04-06T13:19:12;20.40;25.40
21387;DHT22;10854;45.922;6.716;2023-04-06T13:21:41;20.50;24.50
21387;DHT22;10854;45.922;6.716;2023-04-06T13:24:11;20.40;24.00
21387;DHT22;10854;45.922;6.716;2023-04-06T13:26:39;20.20;23.10
21387;DHT22;10854;45.922;6.716;2023-04-06T13:29:08;20.20;24.00
21387;DHT22;10854;45.922;6.716;2023-04-06T13:31:36;20.00;24.10
21387;DHT22;10854;45.922;6.716;2023-04-06T13:34:06;19.90;24.40
21387;DHT22;10854;45.922;6.716;2023-04-06T13:36:36;19.40;24.70
21387;DHT22;10854;45.922;6.716;2023-04-06T13:39:04;19.30;25.40
21387;DHT22;10854;45.922;6.716;2023-04-06T13:41:33;19.30;26.00
21387;DHT22;10854;45.922;6.716;2023-04-06T13:44:01;19.40;25.90
21387;DHT22;10854;45.922;6.716;2023-04-06T13:46:29;19.40;25.20
21387;DHT22;10854;45.922;6.716;2023-04-06T13:48:58;19.40;24.90
21387;DHT22;10854;45.922;6.716;2023-04-06T13:51:26;19.40;25.20
21387;DHT22;10854;45.922;6.716;2023-04-06T13:53:55;19.30;25.60
21387;DHT22;10854;45.922;6.716;2023-04-06T13:56:25;19.40;26.60
21387;DHT22;10854;45.922;6.716;2023-04-06T13:58:54;19.70;27.10
21387;DHT22;10854;45.922;6.716;2023-04-06T14:01:25;20.00;27.50
21387;DHT22;10854;45.922;6.716;2023-04-06T14:03:54;20.30;26.80
21387;DHT22;10854;45.922;6.716;2023-04-06T14:06:23;20.60;26.40
21387;DHT22;10854;45.922;6.716;2023-04-06T14:08:56;20.60;26.30
21387;DHT22;10854;45.922;6.716;2023-04-06T14:11:25;20.30;26.40
21387;DHT22;10854;45.922;6.716;2023-04-06T14:13:54;20.10;26.60
21387;DHT22;10854;45.922;6.716;2023-04-06T14:16:24;20.10;27.20
21387;DHT22;10854;45.922;6.716;2023-04-06T14:18:53;20.00;27.30
21387;DHT22;10854;45.922;6.716;2023-04-06T14:21:21;19.90;27.30
21387;DHT22;10854;45.922;6.716;2023-04-06T14:23:49;19.50;27.30
21387;DHT22;10854;45.922;6.716;2023-04-06T14:26:18;19.20;27.60
21387;DHT22;10854;45.922;6.716;2023-04-06T14:28:47;19.00;27.70
21387;DHT22;10854;45.922;6.716;2023-04-06T14:31:16;18.90;27.90
21387;DHT22;10854;45.922;6.716;2023-04-06T14:33:44;18.90;27.90
21387;DHT22;10854;45.922;6.716;2023-04-06T14:36:14;18.80;27.90
21387;DHT22;10854;45.922;6.716;2023-04-06T14:38:43;18.70;28.70
21387;DHT22;10854;45.922;6.716;2023-04-06T14:41:18;18.60;28.30
21387;DHT22;10854;45.922;6.716;2023-04-06T14:43:47;18.60;28.40
21387;DHT22;10854;45.922;6.716;2023-04-06T14:46:16;18.60;28.80
21387;DHT22;10854;45.922;6.716;2023-04-06T14:48:59;18.40;28.40
21387;DHT22;10854;45.922;6.716;2023-04-06T14:51:29;18.30;28.40
21387;DHT22;10854;45.922;6.716;2023-04-06T14:53:58;18.30;29.20
21387;DHT22;10854;45.922;6.716;2023-04-06T14:56:28;18.10;28.50
21387;DHT22;10854;45.922;6.716;2023-04-06T14:59:00;18.10;29.00
21387;DHT22;10854;45.922;6.716;2023-04-06T15:01:33;18.00;29.00
21387;DHT22;10854;45.922;6.716;2023-04-06T15:04:03;17.90;29.00
21387;DHT22;10854;45.922;6.716;2023-04-06T15:06:32;17.60;28.90
21387;DHT22;10854;45.922;6.716;2023-04-06T15:09:01;17.20;28.80
21387;DHT22;10854;45.922;6.716;2023-04-06T15:11:30;16.90;29.20
21387;DHT22;10854;45.922;6.716;2023-04-06T15:14:00;16.60;29.50
21387;DHT22;10854;45.922;6.716;2023-04-06T15:16:28;16.40;29.50
21387;DHT22;10854;45.922;6.716;2023-04-06T15:19:00;16.30;30.00
21387;DHT22;10854;45.922;6.716;2023-04-06T15:21:29;16.20;30.50
21387;DHT22;10854;45.922;6.716;2023-04-06T15:23:58;16.00;30.60
21387;DHT22;10854;45.922;6.716;2023-04-06T15:26:27;15.90;30.90
21387;DHT22;10854;45.922;6.716;2023-04-06T15:28:55;15.80;31.30
21387;DHT22;10854;45.922;6.716;2023-04-06T15:31:24;15.80;31.30
21387;DHT22;10854;45.922;6.716;2023-04-06T15:34:00;15.70;31.30
21387;DHT22;10854;45.922;6.716;2023-04-06T15:36:29;15.60;31.30
21387;DHT22;10854;45.922;6.716;2023-04-06T15:38:58;15.50;31.50
21387;DHT22;10854;45.922;6.716;2023-04-06T15:41:26;15.40;31.90
21387;DHT22;10854;45.922;6.716;2023-04-06T15:43:55;15.30;32.30
21387;DHT22;10854;45.922;6.716;2023-04-06T15:46:23;15.30;32.90
21387;DHT22;10854;45.922;6.716;2023-04-06T15:48:54;15.30;33.00
21387;DHT22;10854;45.922;6.716;2023-04-06T15:51:23;15.40;33.40
21387;DHT22;10854;45.922;6.716;2023-04-06T15:53:51;15.40;33.50
21387;DHT22;10854;45.922;6.716;2023-04-06T15:56:20;15.40;33.70
21387;DHT22;10854;45.922;6.716;2023-04-06T15:58:48;15.40;33.70
21387;DHT22;10854;45.922;6.716;2023-04-06T16:01:17;15.30;33.70